sensor_id;sensor_type;location;lat;lon;timestamp;temperature;humidity
66312;HTU21D;53114;51.138;6.008;2023-04-25T00:01:47;7.62;118.99
66312;HTU21D;53114;51.138;6.008;2023-04-25T00:04:12;7.61;118.99
66312;HTU21D;53114;51.138;6.008;2023-04-25T00:06:38;7.60;118.99
66312;HTU21D;53114;51.138;6.008;2023-04-25T00:09:06;7.60;118.99
66312;HTU21D;53114;51.138;6.008;2023-04-25T00:11:35;7.58;118.99
66312;HTU21D;53114;51.138;6.008;2023-04-25T00:14:03;7.58;118.99
66312;HTU21D;53114;51.138;6.008;2023-04-25T00:16:29;7.56;118.99
66312;HTU21D;53114;51.138;6.008;2023-04-25T00:18:59;7.55;118.99
66312;HTU21D;53114;51.138;6.008;2023-04-25T00:21:25;7.52;118.99
66312;HTU21D;53114;51.138;6.008;2023-04-25T00:23:53;7.54;118.99
66312;HTU21D;53114;51.138;6.008;2023-04-25T00:26:19;7.56;118.99
66312;HTU21D;53114;51.138;6.008;2023-04-25T00:28:47;7.56;118.99
66312;HTU21D;53114;51.138;6.008;2023-04-25T00:31:13;7.56;118.99
66312;HTU21D;53114;51.138;6.008;2023-04-25T00:33:39;7.55;118.99
66312;HTU21D;53114;51.138;6.008;2023-04-25T00:36:06;7.54;118.99
66312;HTU21D;53114;51.138;6.008;2023-04-25T00:38:32;7.54;118.99
66312;HTU21D;53114;51.138;6.008;2023-04-25T00:40:58;7.52;118.99
66312;HTU21D;53114;51.138;6.008;2023-04-25T00:43:28;7.53;118.99
66312;HTU21D;53114;51.138;6.008;2023-04-25T00:45:56;7.52;118.99
66312;HTU21D;53114;51.138;6.008;2023-04-25T00:48:23;7.52;118.99
66312;HTU21D;53114;51.138;6.008;2023-04-25T00:50:54;7.53;118.99
66312;HTU21D;53114;51.138;6.008;2023-04-25T00:53:26;7.53;118.99
66312;HTU21D;53114;51.138;6.008;2023-04-25T00:55:53;7.50;118.99
66312;HTU21D;53114;51.138;6.008;2023-04-25T00:58:21;7.48;118.99
66312;HTU21D;53114;51.138;6.008;2023-04-25T01:00:48;7.52;118.99
66312;HTU21D;53114;51.138;6.008;2023-04-25T01:03:15;7.50;118.99
66312;HTU21D;53114;51.138;6.008;2023-04-25T01:05:46;7.50;118.99
66312;HTU21D;53114;51.138;6.008;2023-04-25T01:08:13;7.50;118.99
66312;HTU21D;53114;51.138;6.008;2023-04-25T01:10:40;7.49;118.99
66312;HTU21D;53114;51.138;6.008;2023-04-25T01:13:06;7.52;118.99
66312;HTU21D;53114;51.138;6.008;2023-04-25T01:15:32;7.52;118.99
66312;HTU21D;53114;51.138;6.008;2023-04-25T01:17:58;7.53;118.99
66312;HTU21D;53114;51.138;6.008;2023-04-25T01:20:26;7.55;118.99
66312;HTU21D;53114;51.138;6.008;2023-04-25T01:22:55;7.55;118.99
66312;HTU21D;53114;51.138;6.008;2023-04-25T01:25:22;7.55;118.99
66312;HTU21D;53114;51.138;6.008;2023-04-25T01:27:48;7.56;118.99
66312;HTU21D;53114;51.138;6.008;2023-04-25T01:30:15;7.56;118.99
66312;HTU21D;53114;51.138;6.008;2023-04-25T01:32:42;7.56;118.99
66312;HTU21D;53114;51.138;6.008;2023-04-25T01:35:10;7.58;118.99
66312;HTU21D;53114;51.138;6.008;2023-04-25T01:37:41;7.58;118.99
66312;HTU21D;53114;51.138;6.008;2023-04-25T01:40:10;7.56;118.99
66312;HTU21D;53114;51.138;6.008;2023-04-25T01:42:42;7.54;118.99
66312;HTU21D;53114;51.138;6.008;2023-04-25T01:45:10;7.49;118.99
66312;HTU21D;53114;51.138;6.008;2023-04-25T01:47:37;7.50;118.99
66312;HTU21D;53114;51.138;6.008;2023-04-25T01:50:05;7.48;118.99
66312;HTU21D;53114;51.138;6.008;2023-04-25T01:52:32;7.47;118.99
66312;HTU21D;53114;51.138;6.008;2023-04-25T01:55:01;7.46;118.99
66312;HTU21D;53114;51.138;6.008;2023-04-25T01:57:29;7.47;118.99
66312;HTU21D;53114;51.138;6.008;2023-04-25T02:00:00;7.47;118.99
66312;HTU21D;53114;51.138;6.008;2023-04-25T02:02:38;7.45;118.99
66312;HTU21D;53114;51.138;6.008;2023-04-25T02:05:09;7.45;118.99
66312;HTU21D;53114;51.138;6.008;2023-04-25T02:07:38;7.49;118.99
66312;HTU21D;53114;51.138;6.008;2023-04-25T02:10:05;7.58;118.99
66312;HTU21D;53114;51.138;6.008;2023-04-25T02:12:35;7.64;118.99
66312;HTU21D;53114;51.138;6.008;2023-04-25T02:15:15;7.71;118.99
66312;HTU21D;53114;51.138;6.008;2023-04-25T02:17:48;7.77;118.99
66312;HTU21D;53114;51.138;6.008;2023-04-25T02:20:14;7.83;118.99
66312;HTU21D;53114;51.138;6.008;2023-04-25T02:22:41;7.85;118.99
66312;HTU21D;53114;51.138;6.008;2023-04-25T02:25:08;7.85;118.99
66312;HTU21D;53114;51.138;6.008;2023-04-25T02:27:35;7.87;118.99
66312;HTU21D;53114;51.138;6.008;2023-04-25T02:30:01;7.89;118.99
66312;HTU21D;53114;51.138;6.008;2023-04-25T02:32:27;7.89;118.99
66312;HTU21D;53114;51.138;6.008;2023-04-25T02:34:53;7.91;118.99
66312;HTU21D;53114;51.138;6.008;2023-04-25T02:37:19;7.89;118.99
66312;HTU21D;53114;51.138;6.008;2023-04-25T02:39:45;7.91;118.99
66312;HTU21D;53114;51.138;6.008;2023-04-25T02:42:11;7.92;118.99
66312;HTU21D;53114;51.138;6.008;2023-04-25T02:44:37;7.90;118.99
66312;HTU21D;53114;51.138;6.008;2023-04-25T02:47:04;7.87;118.99
66312;HTU21D;53114;51.138;6.008;2023-04-25T02:49:30;7.87;118.99
66312;HTU21D;53114;51.138;6.008;2023-04-25T02:51:56;7.88;118.99
66312;HTU21D;53114;51.138;6.008;2023-04-25T02:54:22;7.83;118.99
66312;HTU21D;53114;51.138;6.008;2023-04-25T02:56:48;7.78;118.99
66312;HTU21D;53114;51.138;6.008;2023-04-25T02:59:20;7.75;118.99
66312;HTU21D;53114;51.138;6.008;2023-04-25T03:01:45;7.74;118.99
66312;HTU21D;53114;51.138;6.008;2023-04-25T03:04:11;7.77;118.99
66312;HTU21D;53114;51.138;6.008;2023-04-25T03:06:37;7.79;118.99
66312;HTU21D;53114;51.138;6.008;2023-04-25T03:09:03;7.82;118.99
66312;HTU21D;53114;51.138;6.008;2023-04-25T03:11:29;7.85;118.99
66312;HTU21D;53114;51.138;6.008;2023-04-25T03:13:55;7.85;118.99
66312;HTU21D;53114;51.138;6.008;2023-04-25T03:16:22;7.85;118.99
66312;HTU21D;53114;51.138;6.008;2023-04-25T03:18:49;7.86;118.99
66312;HTU21D;53114;51.138;6.008;2023-04-25T03:21:17;7.81;118.99
66312;HTU21D;53114;51.138;6.008;2023-04-25T03:23:43;7.82;118.99
66312;HTU21D;53114;51.138;6.008;2023-04-25T03:26:08;7.83;118.99
66312;HTU21D;53114;51.138;6.008;2023-04-25T03:28:35;7.83;118.99
66312;HTU21D;53114;51.138;6.008;2023-04-25T03:31:01;7.82;118.99
66312;HTU21D;53114;51.138;6.008;2023-04-25T03:33:26;7.82;118.99
66312;HTU21D;53114;51.138;6.008;2023-04-25T03:35:52;7.82;118.99
66312;HTU21D;53114;51.138;6.008;2023-04-25T03:38:19;7.83;118.99
66312;HTU21D;53114;51.138;6.008;2023-04-25T03:40:45;7.82;118.99
66312;HTU21D;53114;51.138;6.008;2023-04-25T03:43:18;7.77;118.99
66312;HTU21D;53114;51.138;6.008;2023-04-25T03:45:51;7.75;118.99
66312;HTU21D;53114;51.138;6.008;2023-04-25T03:48:19;7.75;118.99
66312;HTU21D;53114;51.138;6.008;2023-04-25T03:50:50;7.76;118.99
66312;HTU21D;53114;51.138;6.008;2023-04-25T03:53:16;7.81;118.99
66312;HTU21D;53114;51.138;6.008;2023-04-25T03:56:14;7.83;118.99
66312;HTU21D;53114;51.138;6.008;2023-04-25T03:58:40;7.86;118.99
66312;HTU21D;53114;51.138;6.008;2023-04-25T04:01:07;7.87;118.99
66312;HTU21D;53114;51.138;6.008;2023-04-25T04:03:36;7.90;118.99
66312;HTU21D;53114;51.138;6.008;2023-04-25T04:06:04;7.90;118.99
66312;HTU21D;53114;51.138;6.008;2023-04-25T04:08:33;7.90;118.99
66312;HTU21D;53114;51.138;6.008;2023-04-25T04:10:59;7.91;118.99
66312;HTU21D;53114;51.138;6.008;2023-04-25T04:13:27;7.94;118.99
66312;HTU21D;53114;51.138;6.008;2023-04-25T04:15:53;7.92;118.99
66312;HTU21D;53114;51.138;6.008;2023-04-25T04:18:19;7.91;118.99
66312;HTU21D;53114;51.138;6.008;2023-04-25T04:20:45;7.89;118.99
66312;HTU21D;53114;51.138;6.008;2023-04-25T04:23:11;7.94;118.99
66312;HTU21D;53114;51.138;6.008;2023-04-25T04:25:37;7.96;118.99
66312;HTU21D;53114;51.138;6.008;2023-04-25T04:28:35;8.00;118.99
66312;HTU21D;53114;51.138;6.008;2023-04-25T04:31:11;7.98;118.99
66312;HTU21D;53114;51.138;6.008;2023-04-25T04:33:37;7.99;118.99
66312;HTU21D;53114;51.138;6.008;2023-04-25T04:36:04;8.00;118.99
66312;HTU21D;53114;51.138;6.008;2023-04-25T04:38:33;8.03;118.99
66312;HTU21D;53114;51.138;6.008;2023-04-25T04:41:02;8.06;118.99
66312;HTU21D;53114;51.138;6.008;2023-04-25T04:43:54;8.06;118.99
66312;HTU21D;53114;51.138;6.008;2023-04-25T04:46:34;8.08;118.99
66312;HTU21D;53114;51.138;6.008;2023-04-25T04:49:21;8.09;118.99
66312;HTU21D;53114;51.138;6.008;2023-04-25T04:51:58;8.07;118.99
66312;HTU21D;53114;51.138;6.008;2023-04-25T04:54:51;8.05;118.99
66312;HTU21D;53114;51.138;6.008;2023-04-25T04:57:37;8.04;118.99
66312;HTU21D;53114;51.138;6.008;2023-04-25T05:00:29;8.05;118.99
66312;HTU21D;53114;51.138;6.008;2023-04-25T05:03:11;8.05;118.99
66312;HTU21D;53114;51.138;6.008;2023-04-25T05:05:51;8.05;118.99
66312;HTU21D;53114;51.138;6.008;2023-04-25T05:08:37;8.07;118.99
66312;HTU21D;53114;51.138;6.008;2023-04-25T05:11:19;8.09;118.99
66312;HTU21D;53114;51.138;6.008;2023-04-25T05:14:08;8.11;118.99
66312;HTU21D;53114;51.138;6.008;2023-04-25T05:16:43;8.14;118.99
66312;HTU21D;53114;51.138;6.008;2023-04-25T05:19:22;8.16;118.99
66312;HTU21D;53114;51.138;6.008;2023-04-25T05:22:09;8.19;118.99
66312;HTU21D;53114;51.138;6.008;2023-04-25T05:24:58;8.24;118.99
66312;HTU21D;53114;51.138;6.008;2023-04-25T05:27:46;8.28;118.99
66312;HTU21D;53114;51.138;6.008;2023-04-25T05:30:41;8.35;118.99
66312;HTU21D;53114;51.138;6.008;2023-04-25T05:33:15;8.43;118.99
66312;HTU21D;53114;51.138;6.008;2023-04-25T05:35:41;8.53;118.99
66312;HTU21D;53114;51.138;6.008;2023-04-25T05:38:08;8.62;118.99
66312;HTU21D;53114;51.138;6.008;2023-04-25T05:40:57;8.73;118.99
66312;HTU21D;53114;51.138;6.008;2023-04-25T05:43:39;8.80;118.99
66312;HTU21D;53114;51.138;6.008;2023-04-25T05:46:23;8.82;118.99
66312;HTU21D;53114;51.138;6.008;2023-04-25T05:49:08;8.89;118.99
66312;HTU21D;53114;51.138;6.008;2023-04-25T05:51:52;8.95;118.99
66312;HTU21D;53114;51.138;6.008;2023-04-25T05:54:56;9.00;118.99
66312;HTU21D;53114;51.138;6.008;2023-04-25T05:57:23;9.04;118.99
66312;HTU21D;53114;51.138;6.008;2023-04-25T05:59:50;9.06;118.99
66312;HTU21D;53114;51.138;6.008;2023-04-25T06:02:18;9.06;118.99
66312;HTU21D;53114;51.138;6.008;2023-04-25T06:04:44;9.08;118.99
66312;HTU21D;53114;51.138;6.008;2023-04-25T06:07:10;9.12;118.99
66312;HTU21D;53114;51.138;6.008;2023-04-25T06:09:36;9.21;118.99
66312;HTU21D;53114;51.138;6.008;2023-04-25T06:12:02;9.30;118.99
66312;HTU21D;53114;51.138;6.008;2023-04-25T06:14:29;9.42;118.99
66312;HTU21D;53114;51.138;6.008;2023-04-25T06:16:56;9.53;118.99
66312;HTU21D;53114;51.138;6.008;2023-04-25T06:19:21;9.60;118.99
66312;HTU21D;53114;51.138;6.008;2023-04-25T06:21:47;9.61;118.99
66312;HTU21D;53114;51.138;6.008;2023-04-25T06:24:13;9.60;118.99
66312;HTU21D;53114;51.138;6.008;2023-04-25T06:26:39;9.56;118.99
66312;HTU21D;53114;51.138;6.008;2023-04-25T06:29:06;9.66;118.99
66312;HTU21D;53114;51.138;6.008;2023-04-25T06:31:32;9.74;118.99
66312;HTU21D;53114;51.138;6.008;2023-04-25T06:33:59;9.79;118.99
66312;HTU21D;53114;51.138;6.008;2023-04-25T06:36:27;9.89;118.99
66312;HTU21D;53114;51.138;6.008;2023-04-25T06:38:59;10.00;118.99
66312;HTU21D;53114;51.138;6.008;2023-04-25T06:41:25;10.18;118.99
66312;HTU21D;53114;51.138;6.008;2023-04-25T06:43:52;10.34;118.99
66312;HTU21D;53114;51.138;6.008;2023-04-25T06:46:38;10.45;117.34
66312;HTU21D;53114;51.138;6.008;2023-04-25T06:49:04;10.55;116.34
66312;HTU21D;53114;51.138;6.008;2023-04-25T06:51:31;10.64;115.12
66312;HTU21D;53114;51.138;6.008;2023-04-25T06:53:57;10.74;114.16
66312;HTU21D;53114;51.138;6.008;2023-04-25T06:56:31;10.84;111.87
66312;HTU21D;53114;51.138;6.008;2023-04-25T06:59:04;10.81;110.12
66312;HTU21D;53114;51.138;6.008;2023-04-25T07:01:33;10.84;110.78
66312;HTU21D;53114;51.138;6.008;2023-04-25T07:04:01;10.84;109.10
66312;HTU21D;53114;51.138;6.008;2023-04-25T07:06:28;10.89;108.42
66312;HTU21D;53114;51.138;6.008;2023-04-25T07:08:54;10.97;105.94
66312;HTU21D;53114;51.138;6.008;2023-04-25T07:11:21;11.00;101.88
66312;HTU21D;53114;51.138;6.008;2023-04-25T07:13:47;11.13;102.93
66312;HTU21D;53114;51.138;6.008;2023-04-25T07:16:13;11.32;101.15
66312;HTU21D;53114;51.138;6.008;2023-04-25T07:18:39;11.49;100.35
66312;HTU21D;53114;51.138;6.008;2023-04-25T07:21:05;11.67;97.70
66312;HTU21D;53114;51.138;6.008;2023-04-25T07:23:32;11.73;94.69
66312;HTU21D;53114;51.138;6.008;2023-04-25T07:26:01;11.81;94.13
66312;HTU21D;53114;51.138;6.008;2023-04-25T07:28:28;11.87;94.01
66312;HTU21D;53114;51.138;6.008;2023-04-25T07:30:54;11.89;91.40
66312;HTU21D;53114;51.138;6.008;2023-04-25T07:33:20;11.92;91.06
66312;HTU21D;53114;51.138;6.008;2023-04-25T07:35:46;11.94;90.71
66312;HTU21D;53114;51.138;6.008;2023-04-25T07:38:13;11.96;88.83
66312;HTU21D;53114;51.138;6.008;2023-04-25T07:40:39;12.18;88.15
66312;HTU21D;53114;51.138;6.008;2023-04-25T07:43:07;12.65;84.62
66312;HTU21D;53114;51.138;6.008;2023-04-25T07:45:47;12.96;80.25
66312;HTU21D;53114;51.138;6.008;2023-04-25T07:48:18;12.99;77.57
66312;HTU21D;53114;51.138;6.008;2023-04-25T07:50:45;13.00;78.41
66312;HTU21D;53114;51.138;6.008;2023-04-25T07:53:11;13.10;77.30
66312;HTU21D;53114;51.138;6.008;2023-04-25T07:55:44;13.02;77.31
66312;HTU21D;53114;51.138;6.008;2023-04-25T07:58:15;12.97;79.01
66312;HTU21D;53114;51.138;6.008;2023-04-25T08:00:44;12.96;78.56
66312;HTU21D;53114;51.138;6.008;2023-04-25T08:03:34;12.77;77.19
66312;HTU21D;53114;51.138;6.008;2023-04-25T08:06:02;12.67;77.36
66312;HTU21D;53114;51.138;6.008;2023-04-25T08:08:31;12.56;77.08
66312;HTU21D;53114;51.138;6.008;2023-04-25T08:10:57;12.37;77.21
66312;HTU21D;53114;51.138;6.008;2023-04-25T08:13:23;12.30;78.18
66312;HTU21D;53114;51.138;6.008;2023-04-25T08:15:49;12.26;77.40
66312;HTU21D;53114;51.138;6.008;2023-04-25T08:18:15;12.32;77.98
66312;HTU21D;53114;51.138;6.008;2023-04-25T08:20:42;12.55;76.18
66312;HTU21D;53114;51.138;6.008;2023-04-25T08:23:10;12.73;71.61
66312;HTU21D;53114;51.138;6.008;2023-04-25T08:26:00;12.88;68.22
66312;HTU21D;53114;51.138;6.008;2023-04-25T08:28:27;13.12;65.79
66312;HTU21D;53114;51.138;6.008;2023-04-25T08:30:54;13.34;63.73
66312;HTU21D;53114;51.138;6.008;2023-04-25T08:33:20;13.40;60.25
66312;HTU21D;53114;51.138;6.008;2023-04-25T08:36:00;13.36;60.10
66312;HTU21D;53114;51.138;6.008;2023-04-25T08:38:27;13.44;60.37
66312;HTU21D;53114;51.138;6.008;2023-04-25T08:40:54;14.08;63.27
66312;HTU21D;53114;51.138;6.008;2023-04-25T08:43:23;16.31;57.58
66312;HTU21D;53114;51.138;6.008;2023-04-25T08:45:49;19.36;46.46
66312;HTU21D;53114;51.138;6.008;2023-04-25T08:48:32;22.02;38.29
66312;HTU21D;53114;51.138;6.008;2023-04-25T08:51:01;23.46;33.84
66312;HTU21D;53114;51.138;6.008;2023-04-25T08:53:31;24.54;31.55
66312;HTU21D;53114;51.138;6.008;2023-04-25T08:56:00;24.77;29.49
66312;HTU21D;53114;51.138;6.008;2023-04-25T08:58:34;22.87;30.10
66312;HTU21D;53114;51.138;6.008;2023-04-25T09:01:01;20.87;33.61
66312;HTU21D;53114;51.138;6.008;2023-04-25T09:03:31;21.14;35.28
66312;HTU21D;53114;51.138;6.008;2023-04-25T09:05:57;20.72;33.71
66312;HTU21D;53114;51.138;6.008;2023-04-25T09:08:23;19.10;35.65
66312;HTU21D;53114;51.138;6.008;2023-04-25T09:10:49;17.81;38.11
66312;HTU21D;53114;51.138;6.008;2023-04-25T09:13:25;16.91;39.87
66312;HTU21D;53114;51.138;6.008;2023-04-25T09:16:15;16.39;41.49
66312;HTU21D;53114;51.138;6.008;2023-04-25T09:18:58;16.70;41.77
66312;HTU21D;53114;51.138;6.008;2023-04-25T09:21:25;17.18;41.76
66312;HTU21D;53114;51.138;6.008;2023-04-25T09:23:51;17.69;38.86
66312;HTU21D;53114;51.138;6.008;2023-04-25T09:26:20;16.96;39.90
66312;HTU21D;53114;51.138;6.008;2023-04-25T09:28:48;16.22;41.55
66312;HTU21D;53114;51.138;6.008;2023-04-25T09:31:23;15.66;42.76
66312;HTU21D;53114;51.138;6.008;2023-04-25T09:34:00;15.17;44.06
66312;HTU21D;53114;51.138;6.008;2023-04-25T09:36:27;14.81;45.41
66312;HTU21D;53114;51.138;6.008;2023-04-25T09:39:22;14.59;47.02
66312;HTU21D;53114;51.138;6.008;2023-04-25T09:42:00;14.51;46.82
66312;HTU21D;53114;51.138;6.008;2023-04-25T09:44:26;15.07;48.88
66312;HTU21D;53114;51.138;6.008;2023-04-25T09:46:54;16.73;44.70
66312;HTU21D;53114;51.138;6.008;2023-04-25T09:49:23;17.24;41.41
66312;HTU21D;53114;51.138;6.008;2023-04-25T09:52:16;16.70;41.68
66312;HTU21D;53114;51.138;6.008;2023-04-25T09:54:52;16.07;42.83
66312;HTU21D;53114;51.138;6.008;2023-04-25T09:57:25;15.58;43.05
66312;HTU21D;53114;51.138;6.008;2023-04-25T09:59:55;15.06;44.59
66312;HTU21D;53114;51.138;6.008;2023-04-25T10:02:23;14.86;45.61
66312;HTU21D;53114;51.138;6.008;2023-04-25T10:04:55;14.96;45.94
66312;HTU21D;53114;51.138;6.008;2023-04-25T10:07:29;15.22;45.90
66312;HTU21D;53114;51.138;6.008;2023-04-25T10:10:01;15.70;45.75
66312;HTU21D;53114;51.138;6.008;2023-04-25T10:12:29;17.00;44.95
66312;HTU21D;53114;51.138;6.008;2023-04-25T10:14:58;17.98;40.73
66312;HTU21D;53114;51.138;6.008;2023-04-25T10:17:24;17.82;38.99
66312;HTU21D;53114;51.138;6.008;2023-04-25T10:19:55;17.28;39.94
66312;HTU21D;53114;51.138;6.008;2023-04-25T10:22:36;16.75;40.55
66312;HTU21D;53114;51.138;6.008;2023-04-25T10:25:03;17.01;40.75
66312;HTU21D;53114;51.138;6.008;2023-04-25T10:27:31;17.36;39.91
66312;HTU21D;53114;51.138;6.008;2023-04-25T10:30:13;17.36;39.33
66312;HTU21D;53114;51.138;6.008;2023-04-25T10:32:44;17.28;39.27
66312;HTU21D;53114;51.138;6.008;2023-04-25T10:35:24;17.47;40.23
66312;HTU21D;53114;51.138;6.008;2023-04-25T10:38:09;18.43;38.14
66312;HTU21D;53114;51.138;6.008;2023-04-25T10:40:36;18.55;37.41
66312;HTU21D;53114;51.138;6.008;2023-04-25T10:45:56;17.95;37.55
66312;HTU21D;53114;51.138;6.008;2023-04-25T10:48:30;18.83;37.40
66312;HTU21D;53114;51.138;6.008;2023-04-25T10:51:16;19.17;35.08
66312;HTU21D;53114;51.138;6.008;2023-04-25T10:53:47;19.00;37.37
66312;HTU21D;53114;51.138;6.008;2023-04-25T10:56:27;20.71;35.50
66312;HTU21D;53114;51.138;6.008;2023-04-25T10:59:11;22.36;31.77
66312;HTU21D;53114;51.138;6.008;2023-04-25T11:01:38;23.75;28.74
66312;HTU21D;53114;51.138;6.008;2023-04-25T11:04:05;24.17;26.91
66312;HTU21D;53114;51.138;6.008;2023-04-25T11:09:30;23.71;26.60
66312;HTU21D;53114;51.138;6.008;2023-04-25T11:11:59;23.86;26.30
66312;HTU21D;53114;51.138;6.008;2023-04-25T11:14:26;24.21;25.15
66312;HTU21D;53114;51.138;6.008;2023-04-25T11:16:53;24.23;24.96
66312;HTU21D;53114;51.138;6.008;2023-04-25T11:19:21;24.34;24.78
66312;HTU21D;53114;51.138;6.008;2023-04-25T11:21:47;23.88;25.45
66312;HTU21D;53114;51.138;6.008;2023-04-25T11:24:13;22.57;26.47
66312;HTU21D;53114;51.138;6.008;2023-04-25T11:26:41;20.57;29.31
66312;HTU21D;53114;51.138;6.008;2023-04-25T11:29:08;18.77;33.15
66312;HTU21D;53114;51.138;6.008;2023-04-25T11:31:34;17.48;36.65
66312;HTU21D;53114;51.138;6.008;2023-04-25T11:34:00;16.62;39.39
66312;HTU21D;53114;51.138;6.008;2023-04-25T11:36:26;15.72;41.68
66312;HTU21D;53114;51.138;6.008;2023-04-25T11:38:53;14.94;43.77
66312;HTU21D;53114;51.138;6.008;2023-04-25T11:41:20;14.51;45.89
66312;HTU21D;53114;51.138;6.008;2023-04-25T11:43:48;14.41;47.35
66312;HTU21D;53114;51.138;6.008;2023-04-25T11:46:15;14.22;48.61
66312;HTU21D;53114;51.138;6.008;2023-04-25T11:48:42;13.95;49.76
66312;HTU21D;53114;51.138;6.008;2023-04-25T11:51:08;13.71;51.44
66312;HTU21D;53114;51.138;6.008;2023-04-25T11:53:35;13.54;52.98
66312;HTU21D;53114;51.138;6.008;2023-04-25T11:56:01;13.76;53.97
66312;HTU21D;53114;51.138;6.008;2023-04-25T11:58:27;14.33;52.62
66312;HTU21D;53114;51.138;6.008;2023-04-25T12:00:53;14.95;50.35
66312;HTU21D;53114;51.138;6.008;2023-04-25T12:03:19;15.36;47.75
66312;HTU21D;53114;51.138;6.008;2023-04-25T12:05:46;15.47;45.94
66312;HTU21D;53114;51.138;6.008;2023-04-25T12:08:14;15.58;45.23
66312;HTU21D;53114;51.138;6.008;2023-04-25T12:10:42;15.66;45.72
66312;HTU21D;53114;51.138;6.008;2023-04-25T12:13:23;15.62;44.33
66312;HTU21D;53114;51.138;6.008;2023-04-25T12:15:49;15.49;44.11
66312;HTU21D;53114;51.138;6.008;2023-04-25T12:18:19;15.39;43.71
66312;HTU21D;53114;51.138;6.008;2023-04-25T12:20:46;15.27;44.01
66312;HTU21D;53114;51.138;6.008;2023-04-25T12:23:11;15.33;43.26
66312;HTU21D;53114;51.138;6.008;2023-04-25T12:25:42;15.37;43.42
66312;HTU21D;53114;51.138;6.008;2023-04-25T12:28:14;15.38;43.48
66312;HTU21D;53114;51.138;6.008;2023-04-25T12:31:02;15.30;42.82
66312;HTU21D;53114;51.138;6.008;2023-04-25T12:33:30;15.09;42.52
66312;HTU21D;53114;51.138;6.008;2023-04-25T12:35:58;14.97;42.95
66312;HTU21D;53114;51.138;6.008;2023-04-25T12:38:31;14.84;42.71
66312;HTU21D;53114;51.138;6.008;2023-04-25T12:41:01;14.66;43.11
66312;HTU21D;53114;51.138;6.008;2023-04-25T12:43:27;14.54;43.64
66312;HTU21D;53114;51.138;6.008;2023-04-25T12:45:55;14.55;43.84
66312;HTU21D;53114;51.138;6.008;2023-04-25T12:48:25;14.66;43.46
66312;HTU21D;53114;51.138;6.008;2023-04-25T12:50:51;14.51;43.64
66312;HTU21D;53114;51.138;6.008;2023-04-25T12:53:19;14.32;44.09
66312;HTU21D;53114;51.138;6.008;2023-04-25T12:55:45;14.03;45.22
66312;HTU21D;53114;51.138;6.008;2023-04-25T12:58:18;13.78;46.60
66312;HTU21D;53114;51.138;6.008;2023-04-25T13:00:45;13.53;48.31
66312;HTU21D;53114;51.138;6.008;2023-04-25T13:03:11;13.33;49.13
66312;HTU21D;53114;51.138;6.008;2023-04-25T13:05:38;13.02;49.23
66312;HTU21D;53114;51.138;6.008;2023-04-25T13:08:04;12.74;50.24
66312;HTU21D;53114;51.138;6.008;2023-04-25T13:10:31;12.77;51.94
66312;HTU21D;53114;51.138;6.008;2023-04-25T13:12:59;12.93;52.40
66312;HTU21D;53114;51.138;6.008;2023-04-25T13:15:25;13.00;52.27
66312;HTU21D;53114;51.138;6.008;2023-04-25T13:17:51;13.15;52.20
66312;HTU21D;53114;51.138;6.008;2023-04-25T13:20:16;13.25;51.88
66312;HTU21D;53114;51.138;6.008;2023-04-25T13:22:44;13.35;51.17
66312;HTU21D;53114;51.138;6.008;2023-04-25T13:25:11;13.48;50.73
66312;HTU21D;53114;51.138;6.008;2023-04-25T13:27:37;13.50;49.40
66312;HTU21D;53114;51.138;6.008;2023-04-25T13:30:04;13.34;49.47
66312;HTU21D;53114;51.138;6.008;2023-04-25T13:32:34;13.20;49.76
66312;HTU21D;53114;51.138;6.008;2023-04-25T13:35:03;13.12;49.78
66312;HTU21D;53114;51.138;6.008;2023-04-25T13:37:29;13.19;50.43
66312;HTU21D;53114;51.138;6.008;2023-04-25T13:39:56;13.34;49.89
66312;HTU21D;53114;51.138;6.008;2023-04-25T13:42:23;13.45;49.46
66312;HTU21D;53114;51.138;6.008;2023-04-25T13:44:49;13.56;48.84
66312;HTU21D;53114;51.138;6.008;2023-04-25T13:47:15;13.75;48.33
66312;HTU21D;53114;51.138;6.008;2023-04-25T13:49:41;13.97;48.63
66312;HTU21D;53114;51.138;6.008;2023-04-25T13:52:06;14.18;47.61
66312;HTU21D;53114;51.138;6.008;2023-04-25T13:54:33;14.27;46.83
66312;HTU21D;53114;51.138;6.008;2023-04-25T13:56:59;14.25;46.80
66312;HTU21D;53114;51.138;6.008;2023-04-25T13:59:25;14.17;46.55
66312;HTU21D;53114;51.138;6.008;2023-04-25T14:01:51;14.15;47.02
66312;HTU21D;53114;51.138;6.008;2023-04-25T14:04:17;14.20;47.53
66312;HTU21D;53114;51.138;6.008;2023-04-25T14:06:43;14.30;48.08
66312;HTU21D;53114;51.138;6.008;2023-04-25T14:09:09;14.29;47.56
66312;HTU21D;53114;51.138;6.008;2023-04-25T14:11:36;14.19;46.83
66312;HTU21D;53114;51.138;6.008;2023-04-25T14:14:02;14.25;47.55
66312;HTU21D;53114;51.138;6.008;2023-04-25T14:16:29;14.49;47.92
66312;HTU21D;53114;51.138;6.008;2023-04-25T14:18:55;14.81;47.18
66312;HTU21D;53114;51.138;6.008;2023-04-25T14:21:21;15.15;46.12
66312;HTU21D;53114;51.138;6.008;2023-04-25T14:23:47;15.48;44.90
66312;HTU21D;53114;51.138;6.008;2023-04-25T14:26:13;15.61;43.75
66312;HTU21D;53114;51.138;6.008;2023-04-25T14:28:39;15.54;43.01
66312;HTU21D;53114;51.138;6.008;2023-04-25T14:31:05;15.27;42.81
66312;HTU21D;53114;51.138;6.008;2023-04-25T14:33:31;14.89;42.88
66312;HTU21D;53114;51.138;6.008;2023-04-25T14:35:57;14.49;42.23
66312;HTU21D;53114;51.138;6.008;2023-04-25T14:38:23;14.11;43.83
66312;HTU21D;53114;51.138;6.008;2023-04-25T14:40:51;13.70;44.05
66312;HTU21D;53114;51.138;6.008;2023-04-25T14:43:17;13.34;43.58
66312;HTU21D;53114;51.138;6.008;2023-04-25T14:45:44;13.10;43.84
66312;HTU21D;53114;51.138;6.008;2023-04-25T14:48:10;12.88;45.15
66312;HTU21D;53114;51.138;6.008;2023-04-25T14:50:36;12.71;45.35
66312;HTU21D;53114;51.138;6.008;2023-04-25T14:53:02;12.62;46.73
66312;HTU21D;53114;51.138;6.008;2023-04-25T14:55:28;12.66;47.33
66312;HTU21D;53114;51.138;6.008;2023-04-25T14:57:54;12.76;48.27
66312;HTU21D;53114;51.138;6.008;2023-04-25T15:00:21;12.89;49.07
66312;HTU21D;53114;51.138;6.008;2023-04-25T15:02:48;12.96;49.29
66312;HTU21D;53114;51.138;6.008;2023-04-25T15:05:14;12.96;48.99
66312;HTU21D;53114;51.138;6.008;2023-04-25T15:07:40;13.04;49.40
66312;HTU21D;53114;51.138;6.008;2023-04-25T15:10:07;13.15;48.89
66312;HTU21D;53114;51.138;6.008;2023-04-25T15:12:39;13.35;49.52
66312;HTU21D;53114;51.138;6.008;2023-04-25T15:15:07;13.59;49.11
66312;HTU21D;53114;51.138;6.008;2023-04-25T15:17:43;13.88;48.89
66312;HTU21D;53114;51.138;6.008;2023-04-25T15:20:11;14.13;47.65
66312;HTU21D;53114;51.138;6.008;2023-04-25T15:22:40;14.38;47.04
66312;HTU21D;53114;51.138;6.008;2023-04-25T15:25:07;14.59;46.93
66312;HTU21D;53114;51.138;6.008;2023-04-25T15:27:37;14.73;45.59
66312;HTU21D;53114;51.138;6.008;2023-04-25T15:30:10;14.77;44.64
66312;HTU21D;53114;51.138;6.008;2023-04-25T15:32:38;14.80;43.74
66312;HTU21D;53114;51.138;6.008;2023-04-25T15:35:05;14.53;40.62
66312;HTU21D;53114;51.138;6.008;2023-04-25T15:37:33;14.20;43.17